createdAt,value
2019-05-17T05:28:23.882Z,8.20
2019-05-17T05:29:59.692Z,11.20
2019-05-17T05:31:34.500Z,11.20
2019-05-17T05:33:12.551Z,11.10
2019-05-17T05:34:46.825Z,11.10
2019-05-17T05:36:22.426Z,11.10
2019-05-17T05:37:57.212Z,11.30
2019-05-17T08:25:56.438Z,11.50
2019-05-17T08:27:31.978Z,21.70
2019-05-17T08:29:06.793Z,21.20
2019-05-17T08:30:42.755Z,20.00
2019-05-17T08:32:17.539Z,19.70
2019-05-17T08:37:02.197Z,20.40
2019-05-17T08:38:39.211Z,23.60
2019-05-17T08:45:01.655Z,23.40
2019-05-17T08:46:39.396Z,20.50
2019-05-17T08:48:13.932Z,20.00
2019-05-17T08:49:49.766Z,21.00
2019-05-17T08:51:24.772Z,21.10
2019-05-17T08:53:00.642Z,20.40
2019-05-17T08:54:35.764Z,20.20
2019-05-17T08:56:11.314Z,20.30
2019-05-17T08:57:46.096Z,20.30
2019-05-17T08:59:21.642Z,20.80
2019-05-17T09:00:56.698Z,21.30
2019-05-17T09:13:35.514Z,20.70
2019-05-17T09:27:51.256Z,20.60
2019-05-17T09:35:45.022Z,21.40
2019-05-17T09:50:01.851Z,20.60
2019-05-17T09:51:39.491Z,18.60
2019-05-17T09:53:14.560Z,18.40
2019-05-17T09:54:50.475Z,18.30
2019-05-17T09:56:26.034Z,18.30
2019-05-17T09:58:01.308Z,18.20
2019-05-17T09:59:36.718Z,18.30
2019-05-17T10:01:12.482Z,18.20
2019-05-17T10:02:50.535Z,18.20
2019-05-17T10:04:24.982Z,18.10
2019-05-17T10:06:00.374Z,18.30
2019-05-17T10:07:35.319Z,18.40
2019-05-17T10:09:10.694Z,18.70
2019-05-17T10:10:45.776Z,18.50
2019-05-17T10:12:21.207Z,18.50
2019-05-17T10:13:58.942Z,18.70
2019-05-17T10:15:33.349Z,18.70
2019-05-17T10:17:09.866Z,18.60
2019-05-17T10:18:45.362Z,18.10
2019-05-17T10:20:20.350Z,18.10
2019-05-17T10:21:55.715Z,18.00
2019-05-17T10:23:30.691Z,18.00
2019-05-17T10:25:06.371Z,17.80
2019-05-17T10:26:41.335Z,17.70
2019-05-17T10:28:17.064Z,17.50
2019-05-17T10:29:52.031Z,17.50
2019-05-17T11:28:25.002Z,17.50
2019-05-17T11:29:59.989Z,18.20
2019-05-17T11:31:35.778Z,18.20
2019-05-17T11:33:11.601Z,18.00
2019-05-17T11:34:46.951Z,17.90
2019-05-17T11:36:21.930Z,17.80
2019-05-17T11:37:57.255Z,18.00
2019-05-17T11:39:32.913Z,18.00
2019-05-17T11:41:20.689Z,18.00
2019-05-17T11:42:45.635Z,18.10
2019-05-17T12:14:22.692Z,18.40
2019-05-17T12:15:58.511Z,20.50
2019-05-17T12:17:33.332Z,19.80
2019-05-17T12:19:08.922Z,19.70
2019-05-17T12:20:43.743Z,19.90
2019-05-17T12:22:19.790Z,20.10
2019-05-17T12:23:54.574Z,20.30
2019-05-17T12:25:30.179Z,20.10
2019-05-17T12:27:05.113Z,20.00
2019-05-17T12:31:50.795Z,19.50
2019-05-17T12:44:30.293Z,20.90
2019-05-17T13:13:01.982Z,20.10
2019-05-17T13:20:59.412Z,20.90
2019-05-17T13:22:34.999Z,21.20
2019-05-17T13:24:09.796Z,20.90
2019-05-17T13:25:45.737Z,20.80
2019-05-17T13:27:20.865Z,21.00
2019-05-17T13:36:51.019Z,21.50
2019-05-17T14:00:38.687Z,21.30
2019-05-17T14:02:13.944Z,22.10
2019-05-17T14:30:44.469Z,21.50
2019-05-17T14:32:20.044Z,21.70
2019-05-17T14:33:55.073Z,22.10
2019-05-17T14:35:30.927Z,21.40
2019-05-17T14:37:07.640Z,20.80
2019-05-17T14:38:43.356Z,20.50
2019-05-17T14:40:18.297Z,20.50
2019-05-17T17:35:57.111Z,19.80
2019-05-17T17:37:32.228Z,18.30
2019-05-17T17:39:08.052Z,18.30
2019-05-17T17:40:43.057Z,18.20
2019-05-17T17:42:18.829Z,18.10
2019-05-17T17:43:58.519Z,18.10
2019-05-17T17:45:31.772Z,18.00
2019-05-17T17:47:07.092Z,18.00
2019-05-17T17:48:45.763Z,18.00
2019-05-17T17:50:19.792Z,18.00
2019-05-17T17:51:55.570Z,17.90
2019-05-17T17:53:30.782Z,17.90
2019-05-17T17:55:06.403Z,17.80
2019-05-17T17:56:41.416Z,17.80
2019-05-17T17:58:17.247Z,17.70
2019-05-17T17:59:52.208Z,17.70
2019-05-17T18:01:28.321Z,17.60
2019-05-17T18:03:03.282Z,17.60
2019-05-17T18:04:38.635Z,17.50
2019-05-17T18:06:13.604Z,17.50
2019-05-17T18:07:48.965Z,17.50
2019-05-17T18:09:24.341Z,17.40
2019-05-17T18:10:59.685Z,17.40
2019-05-17T18:12:35.186Z,17.30
2019-05-17T18:14:13.378Z,17.30
2019-05-17T18:15:50.352Z,17.30
2019-05-17T18:17:25.479Z,17.20
2019-05-17T18:19:00.687Z,17.20
2019-05-17T18:20:36.875Z,17.10
2019-05-17T18:22:11.871Z,17.10
2019-05-17T18:25:21.657Z,17.00
2019-05-17T18:26:57.186Z,16.90
2019-05-17T18:28:32.642Z,16.80
2019-05-17T18:30:08.498Z,16.70
2019-05-17T18:31:43.754Z,16.50
2019-05-17T18:33:19.288Z,16.50
2019-05-17T18:34:54.412Z,16.30
2019-05-17T18:36:30.470Z,16.20
2019-05-17T18:38:06.387Z,16.10
2019-05-17T18:39:41.932Z,16.00
2019-05-17T18:41:17.204Z,15.90
2019-05-17T18:49:13.958Z,15.80
2019-05-17T18:50:48.930Z,15.10
2019-05-17T18:52:24.393Z,15.00
2019-05-17T18:55:36.541Z,14.90
2019-05-17T18:57:11.895Z,14.60
2019-05-17T19:01:57.808Z,14.50
2019-05-17T19:05:09.493Z,14.00
2019-05-17T22:58:16.560Z,9.60
2019-05-17T23:04:35.991Z,8.80
